Can Warship 707 — CGBV — position and weather

sailwx.info

Track history (hours):
 
Tides and Currents Weather Stations Pressure Air Temp Water Temp Dewpoint Dewpoint Depression Visibility Wind Speed Wind Dir Waves Ship Positions

Can Warship 707

Last reported at 2016-Aug-06 16:21 UTC. Time now 2016-Aug-25 04:27 UTC.
Position N 47°25' W 052°35'.
Warning: this ship's position is 18 days out of date.

Length 55 m; draft 5 m.

Type: Military. MMSI: 316200000.

Date/timePositionNaut miles runAvg speedWind from/ knotsBaromVisibWave heightAir tempDewpointWater temp
2016-Aug-06 16:21N 47°25' W 052°35'8 9.7
2016-Aug-06 15:31N 47°34' W 052°35'1 1.3
2016-Aug-06 14:32N 47°33' W 052°36'1 0.9
2016-Aug-06 13:33N 47°32' W 052°37'4 3.9
2016-Aug-06 12:33N 47°34' W 052°42'0 0.0
2016-Aug-04 12:18N 47°34' W 052°42'5 6.2
2016-Aug-04 11:31N 47°34' W 052°35'  
2016-Jul-29 14:33N 47°34' W 052°34'6 5.2
2016-Jul-29 13:30N 47°34' W 052°42'0 0.0
2016-Jul-29 12:30N 47°34' W 052°42'0 0.0
2016-Jul-29 11:33N 47°34' W 052°42'0 0.1
2016-Jul-29 10:29N 47°34' W 052°42'7 6.7
2016-Jul-29 09:30N 47°35' W 052°33'  
Track history (hours):
 
Tides and Currents Weather Stations Pressure Air Temp Water Temp Dewpoint Dewpoint Depression Visibility Wind Speed Wind Dir Waves Ship Positions

Can Warship 707

Last reported at 2016-Aug-06 16:21 UTC. Time now 2016-Aug-25 04:27 UTC.
Position N 47°25' W 052°35'.
Warning: this ship's position is 18 days out of date.

Length 55 m; draft 5 m.

Type: Military. MMSI: 316200000.

Date/timePositionNaut miles runAvg speedWind from/ knotsBaromVisibWave heightAir tempDewpointWater temp
2016-Aug-06 16:21N 47°25' W 052°35'8 9.7
2016-Aug-06 15:31N 47°34' W 052°35'1 1.3
2016-Aug-06 14:32N 47°33' W 052°36'1 0.9
2016-Aug-06 13:33N 47°32' W 052°37'4 3.9
2016-Aug-06 12:33N 47°34' W 052°42'0 0.0
2016-Aug-04 12:18N 47°34' W 052°42'5 6.2
2016-Aug-04 11:31N 47°34' W 052°35'  
2016-Jul-29 14:33N 47°34' W 052°34'6 5.2
2016-Jul-29 13:30N 47°34' W 052°42'0 0.0
2016-Jul-29 12:30N 47°34' W 052°42'0 0.0
2016-Jul-29 11:33N 47°34' W 052°42'0 0.1
2016-Jul-29 10:29N 47°34' W 052°42'7 6.7
2016-Jul-29 09:30N 47°35' W 052°33'  

Dump ship's entire track history